SHT15 EGSS-EGLL
Flight info
| Callsign | SHT15 |
|---|---|
| Flight time | 0h 28m |
| Altitude | 8000 |
| Route | CLN DCT LAM |
| Aircraft | A21N/M-SDE2E3FGHIRWXY/LB1 |
Departure
| Time | 2026-05-04 13:45 |
|---|---|
| Airport | London Stansted Airport (EGSS) |
Arrival
| Time | 2026-05-04 14:13 |
|---|---|
| Airport | London Heathrow Airport (EGLL) |
| Time | Latitude | Longitude | Altitude | Speed | Heading |
|---|---|---|---|---|---|
| 2026-05-04 13:30 | 51.88241 | 0.22535 | 334 ft | 0 kts | 313° |
| 2026-05-04 13:38 | 51.88239 | 0.22540 | 334 ft | 2 kts | 313° |
| 2026-05-04 13:39 | 51.88228 | 0.22559 | 334 ft | 2 kts | 312° |
| 2026-05-04 13:39 | 51.88217 | 0.22579 | 336 ft | 2 kts | 310° |
| 2026-05-04 13:39 | 51.88210 | 0.22593 | 335 ft | 2 kts | 309° |
| 2026-05-04 13:39 | 51.88199 | 0.22610 | 334 ft | 2 kts | 329° |
| 2026-05-04 13:40 | 51.88189 | 0.22610 | 334 ft | 2 kts | 47° |
| 2026-05-04 13:40 | 51.88189 | 0.22609 | 334 ft | 0 kts | 49° |
| 2026-05-04 13:42 | 51.88202 | 0.22631 | 337 ft | 7 kts | 44° |
| 2026-05-04 13:42 | 51.88260 | 0.22720 | 335 ft | 17 kts | 42° |
| 2026-05-04 13:42 | 51.88354 | 0.22859 | 335 ft | 10 kts | 43° |
| 2026-05-04 13:42 | 51.88387 | 0.22946 | 335 ft | 11 kts | 89° |
| 2026-05-04 13:43 | 51.88360 | 0.23119 | 333 ft | 19 kts | 115° |
| 2026-05-04 13:43 | 51.88344 | 0.23183 | 337 ft | 6 kts | 98° |
| 2026-05-04 13:43 | 51.88355 | 0.23240 | 338 ft | 0 kts | 47° |
| 2026-05-04 13:44 | 51.88363 | 0.23254 | 334 ft | 16 kts | 47° |
| 2026-05-04 13:44 | 51.88639 | 0.23672 | 336 ft | 93 kts | 44° |
| 2026-05-04 13:44 | 51.89322 | 0.24695 | 381 ft | 177 kts | 40° |
| 2026-05-04 13:44 | 51.90123 | 0.25857 | 768 ft | 201 kts | 40° |
| 2026-05-04 13:45 | 51.91049 | 0.27478 | 1833 ft | 204 kts | 50° |
| 2026-05-04 13:45 | 51.91869 | 0.29395 | 2581 ft | 220 kts | 57° |
| 2026-05-04 13:45 | 51.92545 | 0.31317 | 2948 ft | 235 kts | 65° |
| 2026-05-04 13:45 | 51.92712 | 0.33984 | 2978 ft | 250 kts | 102° |
| 2026-05-04 13:46 | 51.91840 | 0.36534 | 3150 ft | 279 kts | 128° |
| 2026-05-04 13:46 | 51.90577 | 0.39063 | 4175 ft | 290 kts | 127° |
| 2026-05-04 13:46 | 51.89503 | 0.41492 | 5836 ft | 273 kts | 124° |
| 2026-05-04 13:46 | 51.88494 | 0.44038 | 7088 ft | 272 kts | 122° |
| 2026-05-04 13:47 | 51.87542 | 0.46729 | 7678 ft | 278 kts | 120° |
| 2026-05-04 13:47 | 51.86663 | 0.49452 | 7957 ft | 281 kts | 118° |
| 2026-05-04 13:47 | 51.85864 | 0.52063 | 8011 ft | 283 kts | 117° |
| 2026-05-04 13:47 | 51.84970 | 0.55077 | 8019 ft | 284 kts | 117° |
| 2026-05-04 13:48 | 51.84015 | 0.57860 | 8015 ft | 284 kts | 127° |
| 2026-05-04 13:48 | 51.82654 | 0.60136 | 8017 ft | 281 kts | 146° |
| 2026-05-04 13:48 | 51.80892 | 0.61408 | 8012 ft | 277 kts | 171° |
| 2026-05-04 13:48 | 51.79010 | 0.61314 | 8018 ft | 273 kts | 197° |
| 2026-05-04 13:49 | 51.77368 | 0.59860 | 8022 ft | 270 kts | 224° |
| 2026-05-04 13:49 | 51.76227 | 0.57584 | 8024 ft | 270 kts | 237° |
| 2026-05-04 13:49 | 51.75307 | 0.54895 | 8008 ft | 271 kts | 244° |
| 2026-05-04 13:49 | 51.74562 | 0.52146 | 8010 ft | 272 kts | 248° |
| 2026-05-04 13:50 | 51.73871 | 0.49326 | 8015 ft | 272 kts | 249° |
| 2026-05-04 13:50 | 51.73185 | 0.46488 | 8009 ft | 271 kts | 248° |
| 2026-05-04 13:50 | 51.72487 | 0.43682 | 8025 ft | 270 kts | 247° |
| 2026-05-04 13:50 | 51.71795 | 0.41009 | 7996 ft | 270 kts | 246° |
| 2026-05-04 13:51 | 51.71039 | 0.38191 | 8010 ft | 271 kts | 246° |
| 2026-05-04 13:51 | 51.70278 | 0.35420 | 8012 ft | 271 kts | 246° |
| 2026-05-04 13:51 | 51.69507 | 0.32651 | 8008 ft | 271 kts | 245° |
| 2026-05-04 13:51 | 51.68792 | 0.30098 | 7990 ft | 254 kts | 245° |
| 2026-05-04 13:52 | 51.67473 | 0.25395 | 8002 ft | 221 kts | 245° |
| 2026-05-04 13:52 | 51.66854 | 0.23190 | 7994 ft | 217 kts | 245° |
| 2026-05-04 13:52 | 51.66234 | 0.20981 | 8016 ft | 215 kts | 245° |
| 2026-05-04 13:53 | 51.65659 | 0.18936 | 8026 ft | 220 kts | 245° |
| 2026-05-04 13:53 | 51.65006 | 0.16619 | 8022 ft | 233 kts | 245° |
| 2026-05-04 13:53 | 51.64107 | 0.14445 | 8011 ft | 236 kts | 226° |
| 2026-05-04 13:54 | 51.61318 | 0.12558 | 8024 ft | 241 kts | 178° |
| 2026-05-04 13:54 | 51.59756 | 0.13404 | 8017 ft | 245 kts | 147° |
| 2026-05-04 13:54 | 51.58407 | 0.18229 | 8010 ft | 254 kts | 82° |
| 2026-05-04 13:55 | 51.58850 | 0.20969 | 8016 ft | 255 kts | 70° |
| 2026-05-04 13:55 | 51.60393 | 0.25968 | 8043 ft | 256 kts | 60° |
| 2026-05-04 13:55 | 51.61298 | 0.28453 | 8006 ft | 257 kts | 59° |
| 2026-05-04 13:56 | 51.62305 | 0.30811 | 8008 ft | 257 kts | 46° |
| 2026-05-04 13:56 | 51.63727 | 0.32536 | 8019 ft | 255 kts | 22° |
| 2026-05-04 13:56 | 51.67057 | 0.33287 | 8039 ft | 248 kts | 348° |
| 2026-05-04 13:57 | 51.68627 | 0.32300 | 8024 ft | 244 kts | 321° |
| 2026-05-04 13:57 | 51.69681 | 0.30276 | 8020 ft | 238 kts | 292° |
| 2026-05-04 13:58 | 51.68739 | 0.22997 | 7989 ft | 236 kts | 235° |
| 2026-05-04 13:58 | 51.66698 | 0.18925 | 7994 ft | 237 kts | 230° |
| 2026-05-04 13:58 | 51.65623 | 0.16915 | 7994 ft | 237 kts | 230° |
| 2026-05-04 13:59 | 51.64557 | 0.14890 | 7975 ft | 237 kts | 235° |
| 2026-05-04 13:59 | 51.64025 | 0.12974 | 7733 ft | 230 kts | 258° |
| 2026-05-04 13:59 | 51.63961 | 0.07915 | 7028 ft | 236 kts | 271° |
| 2026-05-04 14:00 | 51.64028 | 0.05291 | 6992 ft | 235 kts | 271° |
| 2026-05-04 14:00 | 51.64151 | 0.00162 | 6996 ft | 234 kts | 271° |
| 2026-05-04 14:00 | 51.64218 | -0.02453 | 7030 ft | 234 kts | 271° |
| 2026-05-04 14:01 | 51.64281 | -0.05086 | 7037 ft | 236 kts | 271° |
| 2026-05-04 14:01 | 51.64339 | -0.07735 | 7038 ft | 237 kts | 271° |
| 2026-05-04 14:01 | 51.64456 | -0.12909 | 6792 ft | 231 kts | 271° |
| 2026-05-04 14:02 | 51.64520 | -0.15485 | 6401 ft | 230 kts | 271° |
| 2026-05-04 14:02 | 51.64565 | -0.17552 | 5983 ft | 233 kts | 271° |
| 2026-05-04 14:02 | 51.64611 | -0.20162 | 5451 ft | 234 kts | 271° |
| 2026-05-04 14:02 | 51.64650 | -0.22329 | 5144 ft | 235 kts | 270° |
| 2026-05-04 14:03 | 51.64324 | -0.24976 | 5050 ft | 234 kts | 242° |
| 2026-05-04 14:03 | 51.63235 | -0.26863 | 5050 ft | 233 kts | 211° |
| 2026-05-04 14:03 | 51.61830 | -0.27535 | 5050 ft | 234 kts | 182° |
| 2026-05-04 14:03 | 51.60256 | -0.26910 | 5043 ft | 235 kts | 150° |
| 2026-05-04 14:04 | 51.58227 | -0.22921 | 4997 ft | 235 kts | 121° |
| 2026-05-04 14:04 | 51.57449 | -0.20782 | 4989 ft | 212 kts | 121° |
| 2026-05-04 14:04 | 51.56734 | -0.18810 | 4985 ft | 199 kts | 121° |
| 2026-05-04 14:05 | 51.55381 | -0.15122 | 4537 ft | 189 kts | 121° |
| 2026-05-04 14:05 | 51.54704 | -0.13306 | 4126 ft | 191 kts | 121° |
| 2026-05-04 14:05 | 51.53941 | -0.11516 | 3996 ft | 193 kts | 135° |
| 2026-05-04 14:06 | 51.52949 | -0.10353 | 3973 ft | 171 kts | 148° |
| 2026-05-04 14:06 | 51.51976 | -0.09468 | 3971 ft | 156 kts | 150° |
| 2026-05-04 14:06 | 51.51018 | -0.08725 | 3976 ft | 152 kts | 162° |
| 2026-05-04 14:06 | 51.50008 | -0.08353 | 3985 ft | 150 kts | 169° |
| 2026-05-04 14:07 | 51.49076 | -0.08136 | 3988 ft | 150 kts | 180° |
| 2026-05-04 14:07 | 51.48167 | -0.08862 | 3983 ft | 150 kts | 229° |
| 2026-05-04 14:07 | 51.47783 | -0.10388 | 3997 ft | 149 kts | 258° |
| 2026-05-04 14:07 | 51.47676 | -0.12102 | 3998 ft | 162 kts | 270° |
| 2026-05-04 14:08 | 51.47757 | -0.13878 | 3842 ft | 167 kts | 278° |
| 2026-05-04 14:08 | 51.47904 | -0.15731 | 3599 ft | 169 kts | 279° |
| 2026-05-04 14:08 | 51.48036 | -0.17600 | 3375 ft | 169 kts | 274° |
| 2026-05-04 14:08 | 51.48056 | -0.19462 | 3152 ft | 170 kts | 269° |
| 2026-05-04 14:09 | 51.47911 | -0.22621 | 2951 ft | 169 kts | 266° |
| 2026-05-04 14:09 | 51.47843 | -0.24503 | 2730 ft | 169 kts | 269° |
| 2026-05-04 14:10 | 51.47888 | -0.28028 | 2299 ft | 168 kts | 273° |
| 2026-05-04 14:10 | 51.47909 | -0.29872 | 2068 ft | 169 kts | 271° |
| 2026-05-04 14:10 | 51.47883 | -0.31626 | 1842 ft | 160 kts | 269° |
| 2026-05-04 14:10 | 51.47841 | -0.33359 | 1459 ft | 155 kts | 270° |
| 2026-05-04 14:11 | 51.47828 | -0.34910 | 1132 ft | 149 kts | 271° |
| 2026-05-04 14:11 | 51.47816 | -0.37943 | 757 ft | 126 kts | 271° |
| 2026-05-04 14:11 | 51.47811 | -0.39334 | 612 ft | 124 kts | 270° |
| 2026-05-04 14:12 | 51.47794 | -0.40581 | 456 ft | 123 kts | 269° |
| 2026-05-04 14:12 | 51.47780 | -0.41938 | 303 ft | 121 kts | 271° |
| 2026-05-04 14:12 | 51.47763 | -0.44291 | 118 ft | 117 kts | 271° |
| 2026-05-04 14:13 | 51.47754 | -0.45449 | 95 ft | 95 kts | 270° |
| 2026-05-04 14:13 | 51.47754 | -0.46101 | 96 ft | 75 kts | 265° |
| 2026-05-04 14:13 | 51.47713 | -0.46610 | 99 ft | 43 kts | 253° |
| 2026-05-04 14:13 | 51.47665 | -0.46800 | 101 ft | 6 kts | 238° |
| 2026-05-04 14:14 | 51.47648 | -0.46833 | 100 ft | 0 kts | 226° |
| 2026-05-04 14:19 | 51.47602 | -0.46896 | 96 ft | 14 kts | 237° |
| 2026-05-04 14:19 | 51.47584 | -0.47152 | 96 ft | 26 kts | 269° |
| 2026-05-04 14:19 | 51.47584 | -0.47384 | 95 ft | 21 kts | 270° |
| 2026-05-04 14:19 | 51.47582 | -0.47676 | 95 ft | 23 kts | 269° |
| 2026-05-04 14:20 | 51.47580 | -0.47908 | 96 ft | 18 kts | 269° |
| 2026-05-04 14:20 | 51.47581 | -0.48144 | 98 ft | 20 kts | 272° |
| 2026-05-04 14:20 | 51.47582 | -0.48305 | 99 ft | 12 kts | 270° |
| 2026-05-04 14:21 | 51.47518 | -0.48467 | 95 ft | 12 kts | 185° |
| 2026-05-04 14:21 | 51.47478 | -0.48471 | 97 ft | 8 kts | 184° |
| 2026-05-04 14:21 | 51.47422 | -0.48477 | 92 ft | 1 kts | 184° |
| 2026-05-04 14:21 | 51.47374 | -0.48482 | 90 ft | 12 kts | 184° |
| 2026-05-04 14:22 | 51.47326 | -0.48486 | 90 ft | 4 kts | 182° |
| 2026-05-04 14:22 | 51.47315 | -0.48486 | 90 ft | 3 kts | 180° |
| 2026-05-04 14:22 | 51.47286 | -0.48483 | 90 ft | 0 kts | 176° |
| 2026-05-04 14:22 | 51.47278 | -0.48478 | 91 ft | 1 kts | 138° |
| 2026-05-04 14:23 | 51.47288 | -0.48383 | 93 ft | 9 kts | 46° |
| 2026-05-04 14:23 | 51.47355 | -0.48364 | 92 ft | 15 kts | 2° |
| 2026-05-04 14:23 | 51.47406 | -0.48364 | 93 ft | 11 kts | 1° |
| 2026-05-04 14:24 | 51.47475 | -0.48422 | 95 ft | 11 kts | 292° |
| 2026-05-04 14:24 | 51.47483 | -0.48586 | 96 ft | 20 kts | 268° |
| 2026-05-04 14:24 | 51.47482 | -0.48741 | 95 ft | 14 kts | 269° |
| 2026-05-04 14:24 | 51.47482 | -0.48801 | 95 ft | 7 kts | 269° |
| 2026-05-04 14:25 | 51.47475 | -0.48887 | 95 ft | 7 kts | 242° |